createdAt,value
2023-04-09T00:01:55.892Z,213378.00
2023-04-09T00:07:58.424Z,213370.00
2023-04-09T00:14:00.643Z,213328.00
2023-04-09T00:20:03.380Z,213300.00
2023-04-09T00:26:06.622Z,213262.00
2023-04-09T00:32:09.923Z,213226.00
2023-04-09T00:38:12.368Z,213206.00
2023-04-09T00:44:15.145Z,213198.00
2023-04-09T00:50:17.586Z,213158.00
2023-04-09T00:56:22.928Z,213125.00
2023-04-09T01:02:25.527Z,213117.00
2023-04-09T01:08:39.633Z,213117.00
2023-04-09T01:14:49.983Z,213103.00
2023-04-09T01:21:08.908Z,213067.00
2023-04-09T01:27:12.502Z,213097.00
2023-04-09T01:33:25.799Z,213089.00
2023-04-09T01:39:29.013Z,213095.00
2023-04-09T01:45:31.415Z,213097.00
2023-04-09T01:51:34.399Z,213089.00
2023-04-09T01:57:36.907Z,213039.00
2023-04-09T02:03:49.523Z,212939.00
2023-04-09T02:09:54.623Z,212883.00
2023-04-09T02:15:58.447Z,212836.00
2023-04-09T02:22:01.025Z,212816.00
2023-04-09T02:28:03.475Z,212856.00
2023-04-09T02:34:06.054Z,212842.00
2023-04-09T02:40:08.887Z,212856.00
2023-04-09T02:46:11.696Z,212869.00
2023-04-09T02:52:14.002Z,212856.00
2023-04-09T02:58:16.549Z,212869.00
2023-04-09T03:04:19.255Z,212856.00
2023-04-09T03:10:21.867Z,212794.00
2023-04-09T03:16:26.068Z,212774.00
2023-04-09T03:22:28.695Z,212720.00
2023-04-09T03:28:31.640Z,212680.00
2023-04-09T03:34:34.545Z,212638.00
2023-04-09T03:40:37.719Z,212632.00
2023-04-09T03:46:40.211Z,212616.00
2023-04-09T03:52:45.070Z,212604.00
2023-04-09T03:58:50.030Z,212604.00
2023-04-09T04:04:55.487Z,212666.00
2023-04-09T04:11:05.507Z,212692.00
2023-04-09T04:17:09.510Z,212780.00
2023-04-09T04:23:12.335Z,212905.00
2023-04-09T04:29:23.512Z,213061.00
2023-04-09T04:35:30.415Z,213212.00
2023-04-09T04:41:36.566Z,213390.00
2023-04-09T04:47:54.140Z,213509.00
2023-04-09T04:53:56.534Z,213714.00
2023-04-09T04:59:59.331Z,213778.00
2023-04-09T05:06:02.062Z,213858.00
2023-04-09T05:12:12.663Z,213922.00
2023-04-09T05:18:15.574Z,214033.00
2023-04-09T05:24:18.013Z,214183.00
2023-04-09T05:30:20.939Z,214376.00
2023-04-09T05:36:23.965Z,214515.00
2023-04-09T05:42:28.120Z,214446.00
2023-04-09T05:48:40.478Z,216774.00
2023-04-09T05:54:43.422Z,217191.00
2023-04-09T06:00:47.794Z,218272.00
2023-04-09T06:06:50.260Z,217730.00
2023-04-09T06:12:52.795Z,216501.00
2023-04-09T06:18:57.455Z,216114.00
2023-04-09T06:25:00.419Z,215764.00
2023-04-09T06:31:02.707Z,216493.00
2023-04-09T06:37:05.556Z,218174.00
2023-04-09T06:43:08.062Z,220093.00
2023-04-09T06:49:29.376Z,220833.00
2023-04-09T06:55:32.339Z,223056.00
2023-04-09T07:01:36.009Z,224269.00
2023-04-09T07:07:39.457Z,223822.00
2023-04-09T07:13:41.974Z,223553.00
2023-04-09T07:19:44.161Z,223948.00
2023-04-09T07:25:46.343Z,223620.00
2023-04-09T07:31:49.279Z,223822.00
2023-04-09T07:37:51.918Z,223978.00
2023-04-09T07:43:54.469Z,224871.00
2023-04-09T07:49:56.887Z,225604.00
2023-04-09T07:55:59.602Z,224188.00
2023-04-09T08:02:05.465Z,224728.00
2023-04-09T08:08:08.019Z,224954.00
2023-04-09T08:14:13.523Z,224533.00
2023-04-09T08:20:17.470Z,224113.00
2023-04-09T08:26:20.061Z,224099.00
2023-04-09T08:32:22.823Z,224376.00
2023-04-09T08:38:25.521Z,224796.00
2023-04-09T08:44:28.848Z,225083.00
2023-04-09T08:50:34.317Z,224016.00
2023-04-09T08:56:37.026Z,224376.00
2023-04-09T09:02:40.302Z,223555.00
2023-04-09T09:08:42.770Z,223501.00
2023-04-09T09:14:45.156Z,223903.00
2023-04-09T09:20:47.661Z,224099.00
2023-04-09T09:26:50.157Z,223212.00
2023-04-09T09:33:06.081Z,224271.00
2023-04-09T09:39:12.959Z,224697.00
2023-04-09T09:45:19.718Z,223800.00
2023-04-09T09:51:28.516Z,223072.00
2023-04-09T09:57:33.130Z,224188.00
2023-04-09T10:03:38.104Z,224269.00
2023-04-09T10:09:43.280Z,223620.00
2023-04-09T10:15:46.578Z,224600.00
2023-04-09T10:22:00.402Z,223739.00
2023-04-09T10:28:03.730Z,223762.00
2023-04-09T10:34:06.041Z,222975.00
2023-04-09T10:40:18.891Z,222001.00
2023-04-09T10:46:37.359Z,223240.00
2023-04-09T10:52:42.205Z,222967.00
2023-04-09T10:58:44.732Z,221728.00
2023-04-09T11:04:53.358Z,221874.00
2023-04-09T11:10:58.827Z,221296.00
2023-04-09T11:17:04.163Z,220210.00
2023-04-09T11:23:06.914Z,219436.00
2023-04-09T11:29:09.696Z,219436.00
2023-04-09T11:35:16.918Z,219534.00
2023-04-09T11:41:19.222Z,218896.00
2023-04-09T11:47:22.427Z,218816.00
2023-04-09T11:53:31.536Z,219185.00
2023-04-09T11:59:34.027Z,219046.00
2023-04-09T12:05:36.860Z,219062.00
2023-04-09T12:11:43.575Z,219624.00
2023-04-09T12:17:48.976Z,219313.00
2023-04-09T12:23:51.642Z,219024.00
2023-04-09T12:29:54.088Z,219386.00
2023-04-09T12:35:58.823Z,220071.00
2023-04-09T12:42:02.191Z,220742.00
2023-04-09T12:48:04.775Z,220718.00
2023-04-09T12:54:07.498Z,221573.00
2023-04-09T13:00:10.440Z,221706.00
2023-04-09T13:06:13.106Z,220210.00
2023-04-09T13:12:16.982Z,220849.00
2023-04-09T13:18:19.496Z,221185.00
2023-04-09T13:24:22.090Z,220392.00
2023-04-09T13:30:24.574Z,219774.00
2023-04-09T13:36:28.202Z,219185.00
2023-04-09T13:42:32.308Z,218939.00
2023-04-09T13:48:34.881Z,218794.00
2023-04-09T13:54:37.749Z,218788.00
2023-04-09T14:00:40.212Z,218660.00
2023-04-09T14:06:43.073Z,218595.00
2023-04-09T14:12:45.933Z,218458.00
2023-04-09T14:18:48.554Z,218367.00
2023-04-09T14:24:51.873Z,218222.00
2023-04-09T14:30:54.448Z,218288.00
2023-04-09T14:36:56.933Z,218439.00
2023-04-09T14:43:02.769Z,218579.00
2023-04-09T14:49:05.377Z,218458.00
2023-04-09T14:55:12.866Z,218345.00
2023-04-09T15:01:15.288Z,218236.00
2023-04-09T15:07:17.857Z,218088.00
2023-04-09T15:13:20.512Z,218029.00
2023-04-09T15:19:23.027Z,217937.00
2023-04-09T15:25:25.410Z,217859.00
2023-04-09T15:31:28.091Z,217760.00
2023-04-09T15:37:30.869Z,217716.00
2023-04-09T15:43:33.346Z,217590.00
2023-04-09T15:49:37.366Z,217538.00
2023-04-09T15:55:40.360Z,217461.00
2023-04-09T16:01:43.024Z,217376.00
2023-04-09T16:07:45.487Z,217305.00
2023-04-09T16:13:48.484Z,217235.00
2023-04-09T16:19:51.656Z,217151.00
2023-04-09T16:25:54.603Z,217014.00
2023-04-09T16:31:58.098Z,216986.00
2023-04-09T16:38:00.419Z,216874.00
2023-04-09T16:44:03.005Z,216711.00
2023-04-09T16:50:11.002Z,216661.00
2023-04-09T16:56:16.370Z,216577.00
2023-04-09T17:02:22.239Z,216420.00
2023-04-09T17:08:24.991Z,216326.00
2023-04-09T17:14:28.104Z,216232.00
2023-04-09T17:20:30.799Z,216191.00
2023-04-09T17:26:33.295Z,216133.00
2023-04-09T17:32:35.803Z,216086.00
2023-04-09T17:38:38.235Z,216086.00
2023-04-09T17:44:41.877Z,216029.00
2023-04-09T17:50:44.457Z,215923.00
2023-04-09T17:56:47.674Z,215847.00
2023-04-09T18:02:53.450Z,215748.00
2023-04-09T18:08:56.393Z,215700.00
2023-04-09T18:14:58.833Z,215642.00
2023-04-09T18:21:01.354Z,215582.00
2023-04-09T18:27:04.224Z,215510.00
2023-04-09T18:33:06.753Z,215455.00
2023-04-09T18:39:10.064Z,215447.00
2023-04-09T18:45:12.384Z,215391.00
2023-04-09T18:51:18.905Z,215329.00
2023-04-09T18:57:23.575Z,215261.00
2023-04-09T19:03:27.200Z,215188.00
2023-04-09T19:09:32.554Z,215112.00
2023-04-09T19:15:35.153Z,215030.00
2023-04-09T19:21:37.722Z,214980.00
2023-04-09T19:27:40.109Z,214966.00
2023-04-09T19:33:42.726Z,214966.00
2023-04-09T19:39:45.740Z,214966.00
2023-04-09T19:45:48.215Z,214966.00
2023-04-09T19:51:50.803Z,214905.00
2023-04-09T19:57:54.007Z,214849.00
2023-04-09T20:03:56.826Z,214814.00
2023-04-09T20:09:59.636Z,214773.00
2023-04-09T20:16:02.152Z,214737.00
2023-04-09T20:22:04.834Z,214689.00
2023-04-09T20:28:08.715Z,214648.00
2023-04-09T20:34:11.435Z,214604.00
2023-04-09T20:40:14.416Z,214559.00
2023-04-09T20:46:17.003Z,214488.00
2023-04-09T20:52:19.556Z,214424.00
2023-04-09T20:58:22.237Z,214376.00
2023-04-09T21:04:26.160Z,214296.00
2023-04-09T21:10:28.822Z,214266.00
2023-04-09T21:16:31.819Z,214219.00
2023-04-09T21:22:35.154Z,214197.00
2023-04-09T21:28:37.820Z,214169.00
2023-04-09T21:34:40.553Z,214119.00
2023-04-09T21:40:42.881Z,214078.00
2023-04-09T21:46:45.791Z,214033.00
2023-04-09T21:52:48.219Z,213983.00
2023-04-09T21:58:50.891Z,213961.00
2023-04-09T22:04:53.643Z,213936.00
2023-04-09T22:10:56.062Z,213928.00
2023-04-09T22:17:02.139Z,213928.00
2023-04-09T22:23:09.082Z,213900.00
2023-04-09T22:29:11.428Z,213892.00
2023-04-09T22:35:18.442Z,213852.00
2023-04-09T22:41:21.841Z,213852.00
2023-04-09T22:47:24.829Z,213830.00
2023-04-09T22:53:27.362Z,213811.00
2023-04-09T22:59:37.201Z,213789.00
2023-04-09T23:05:42.454Z,213748.00
2023-04-09T23:11:44.816Z,213734.00
2023-04-09T23:17:47.324Z,213734.00
2023-04-09T23:23:49.824Z,213736.00
2023-04-09T23:29:52.208Z,213734.00
2023-04-09T23:35:54.500Z,213728.00
2023-04-09T23:41:58.210Z,213720.00
2023-04-09T23:48:01.061Z,213720.00
2023-04-09T23:54:03.566Z,213714.00
